sensor_id;sensor_type;location;lat;lon;timestamp;temperature;humidity
58638;DHT22;54976;51.510;7.522;2023-05-08T00:01:47;14.10;99.90
58638;DHT22;54976;51.510;7.522;2023-05-08T00:04:48;14.30;99.90
58638;DHT22;54976;51.510;7.522;2023-05-08T00:07:48;14.20;99.90
58638;DHT22;54976;51.510;7.522;2023-05-08T00:10:51;14.20;99.90
58638;DHT22;54976;51.510;7.522;2023-05-08T00:13:52;14.10;99.90
58638;DHT22;54976;51.510;7.522;2023-05-08T00:16:52;14.10;99.90
58638;DHT22;54976;51.510;7.522;2023-05-08T00:19:53;14.00;99.90
58638;DHT22;54976;51.510;7.522;2023-05-08T00:22:53;14.00;99.90
58638;DHT22;54976;51.510;7.522;2023-05-08T00:25:54;13.90;99.90
58638;DHT22;54976;51.510;7.522;2023-05-08T00:28:55;13.90;99.90
58638;DHT22;54976;51.510;7.522;2023-05-08T00:31:56;14.10;99.90
58638;DHT22;54976;51.510;7.522;2023-05-08T00:34:56;13.90;99.90
58638;DHT22;54976;51.510;7.522;2023-05-08T00:37:57;13.90;99.90
58638;DHT22;54976;51.510;7.522;2023-05-08T00:40:58;13.80;99.90
58638;DHT22;54976;51.510;7.522;2023-05-08T00:43:58;13.90;99.90
58638;DHT22;54976;51.510;7.522;2023-05-08T00:46:59;13.70;99.90
58638;DHT22;54976;51.510;7.522;2023-05-08T00:50:00;13.80;99.90
58638;DHT22;54976;51.510;7.522;2023-05-08T00:53:02;13.90;99.90
58638;DHT22;54976;51.510;7.522;2023-05-08T00:56:04;13.80;99.90
58638;DHT22;54976;51.510;7.522;2023-05-08T00:59:08;13.80;99.90
58638;DHT22;54976;51.510;7.522;2023-05-08T01:02:10;13.80;99.90
58638;DHT22;54976;51.510;7.522;2023-05-08T01:05:11;13.70;99.90
58638;DHT22;54976;51.510;7.522;2023-05-08T01:08:12;13.70;99.90
58638;DHT22;54976;51.510;7.522;2023-05-08T01:11:27;13.70;99.90
58638;DHT22;54976;51.510;7.522;2023-05-08T01:21:04;13.60;99.90
58638;DHT22;54976;51.510;7.522;2023-05-08T01:34:40;13.50;99.90
58638;DHT22;54976;51.510;7.522;2023-05-08T01:37:59;13.60;99.90
58638;DHT22;54976;51.510;7.522;2023-05-08T01:41:13;13.50;99.90
58638;DHT22;54976;51.510;7.522;2023-05-08T01:44:20;13.50;99.90
58638;DHT22;54976;51.510;7.522;2023-05-08T01:47:28;13.50;99.90
58638;DHT22;54976;51.510;7.522;2023-05-08T01:50:33;13.50;99.90
58638;DHT22;54976;51.510;7.522;2023-05-08T01:53:41;13.50;99.90
58638;DHT22;54976;51.510;7.522;2023-05-08T01:56:43;13.50;99.90
58638;DHT22;54976;51.510;7.522;2023-05-08T01:59:45;13.50;99.90
58638;DHT22;54976;51.510;7.522;2023-05-08T02:02:48;13.60;99.90
58638;DHT22;54976;51.510;7.522;2023-05-08T02:05:50;13.50;99.90
58638;DHT22;54976;51.510;7.522;2023-05-08T02:08:52;13.60;99.90
58638;DHT22;54976;51.510;7.522;2023-05-08T02:11:54;13.50;99.90
58638;DHT22;54976;51.510;7.522;2023-05-08T02:14:56;13.60;99.90
58638;DHT22;54976;51.510;7.522;2023-05-08T02:17:58;13.40;99.90
58638;DHT22;54976;51.510;7.522;2023-05-08T02:21:01;13.40;99.90
58638;DHT22;54976;51.510;7.522;2023-05-08T02:24:03;13.40;99.90
58638;DHT22;54976;51.510;7.522;2023-05-08T02:27:06;13.40;99.90
58638;DHT22;54976;51.510;7.522;2023-05-08T02:30:13;13.40;99.90
58638;DHT22;54976;51.510;7.522;2023-05-08T02:33:15;13.40;99.90
58638;DHT22;54976;51.510;7.522;2023-05-08T02:36:17;13.30;99.90
58638;DHT22;54976;51.510;7.522;2023-05-08T02:39:20;13.30;99.90
58638;DHT22;54976;51.510;7.522;2023-05-08T02:42:24;13.30;99.90
58638;DHT22;54976;51.510;7.522;2023-05-08T02:45:31;13.30;99.90
58638;DHT22;54976;51.510;7.522;2023-05-08T02:48:37;13.30;99.90
58638;DHT22;54976;51.510;7.522;2023-05-08T02:51:53;13.30;99.90
58638;DHT22;54976;51.510;7.522;2023-05-08T02:55:32;13.30;99.90
58638;DHT22;54976;51.510;7.522;2023-05-08T02:58:43;13.30;99.90
58638;DHT22;54976;51.510;7.522;2023-05-08T03:01:58;13.20;99.90
58638;DHT22;54976;51.510;7.522;2023-05-08T03:08:23;13.10;99.90
58638;DHT22;54976;51.510;7.522;2023-05-08T03:11:28;13.20;99.90
58638;DHT22;54976;51.510;7.522;2023-05-08T03:14:40;13.20;99.90
58638;DHT22;54976;51.510;7.522;2023-05-08T03:17:44;13.20;99.90
58638;DHT22;54976;51.510;7.522;2023-05-08T03:20:48;13.20;99.90
58638;DHT22;54976;51.510;7.522;2023-05-08T03:23:51;13.20;99.90
58638;DHT22;54976;51.510;7.522;2023-05-08T03:26:53;13.20;99.90
58638;DHT22;54976;51.510;7.522;2023-05-08T03:29:55;13.20;99.90
58638;DHT22;54976;51.510;7.522;2023-05-08T03:32:57;13.20;99.90
58638;DHT22;54976;51.510;7.522;2023-05-08T03:35:58;13.10;99.90
58638;DHT22;54976;51.510;7.522;2023-05-08T03:38:59;13.00;99.90
58638;DHT22;54976;51.510;7.522;2023-05-08T03:42:00;13.00;99.90
58638;DHT22;54976;51.510;7.522;2023-05-08T03:45:02;13.00;99.90
58638;DHT22;54976;51.510;7.522;2023-05-08T03:48:04;13.00;99.90
58638;DHT22;54976;51.510;7.522;2023-05-08T03:51:05;13.00;99.90
58638;DHT22;54976;51.510;7.522;2023-05-08T03:54:05;13.10;99.90
58638;DHT22;54976;51.510;7.522;2023-05-08T03:57:06;13.00;99.90
58638;DHT22;54976;51.510;7.522;2023-05-08T04:00:24;12.90;99.90
58638;DHT22;54976;51.510;7.522;2023-05-08T04:06:52;13.00;99.90
58638;DHT22;54976;51.510;7.522;2023-05-08T04:13:09;13.00;99.90
58638;DHT22;54976;51.510;7.522;2023-05-08T04:16:16;13.00;99.90
58638;DHT22;54976;51.510;7.522;2023-05-08T04:19:28;13.00;99.90
58638;DHT22;54976;51.510;7.522;2023-05-08T04:22:33;13.00;99.90
58638;DHT22;54976;51.510;7.522;2023-05-08T04:25:36;13.00;99.90
58638;DHT22;54976;51.510;7.522;2023-05-08T04:28:37;13.00;99.90
58638;DHT22;54976;51.510;7.522;2023-05-08T04:31:38;13.00;99.90
58638;DHT22;54976;51.510;7.522;2023-05-08T04:34:39;13.00;99.90
58638;DHT22;54976;51.510;7.522;2023-05-08T04:37:41;13.00;99.90
58638;DHT22;54976;51.510;7.522;2023-05-08T04:40:44;13.00;99.90
58638;DHT22;54976;51.510;7.522;2023-05-08T04:43:45;13.00;99.90
58638;DHT22;54976;51.510;7.522;2023-05-08T04:46:45;13.00;99.90
58638;DHT22;54976;51.510;7.522;2023-05-08T04:49:46;13.00;99.90
58638;DHT22;54976;51.510;7.522;2023-05-08T04:52:46;13.10;99.90
58638;DHT22;54976;51.510;7.522;2023-05-08T04:55:47;13.10;99.90
58638;DHT22;54976;51.510;7.522;2023-05-08T04:58:47;13.20;99.90
58638;DHT22;54976;51.510;7.522;2023-05-08T05:01:48;13.20;99.90
58638;DHT22;54976;51.510;7.522;2023-05-08T05:04:49;13.20;99.90
58638;DHT22;54976;51.510;7.522;2023-05-08T05:07:50;13.30;99.90
58638;DHT22;54976;51.510;7.522;2023-05-08T05:10:51;13.30;99.90
58638;DHT22;54976;51.510;7.522;2023-05-08T05:13:52;13.40;99.90
58638;DHT22;54976;51.510;7.522;2023-05-08T05:16:52;13.70;99.90
58638;DHT22;54976;51.510;7.522;2023-05-08T05:19:53;13.50;99.90
58638;DHT22;54976;51.510;7.522;2023-05-08T05:22:53;13.60;99.90
58638;DHT22;54976;51.510;7.522;2023-05-08T05:25:54;13.50;99.90
58638;DHT22;54976;51.510;7.522;2023-05-08T05:28:55;13.50;99.90
58638;DHT22;54976;51.510;7.522;2023-05-08T05:31:55;13.50;99.90
58638;DHT22;54976;51.510;7.522;2023-05-08T05:34:56;13.50;99.90
58638;DHT22;54976;51.510;7.522;2023-05-08T05:37:56;13.50;99.90
58638;DHT22;54976;51.510;7.522;2023-05-08T05:40:57;13.50;99.90
58638;DHT22;54976;51.510;7.522;2023-05-08T05:43:58;13.50;99.90
58638;DHT22;54976;51.510;7.522;2023-05-08T05:46:58;13.50;99.90
58638;DHT22;54976;51.510;7.522;2023-05-08T05:49:59;13.60;99.90
58638;DHT22;54976;51.510;7.522;2023-05-08T05:52:59;13.70;99.90
58638;DHT22;54976;51.510;7.522;2023-05-08T05:56:00;13.80;99.90
58638;DHT22;54976;51.510;7.522;2023-05-08T05:59:01;13.90;99.90
58638;DHT22;54976;51.510;7.522;2023-05-08T06:02:01;14.10;99.90
58638;DHT22;54976;51.510;7.522;2023-05-08T06:05:03;14.20;99.90
58638;DHT22;54976;51.510;7.522;2023-05-08T06:08:04;14.40;99.90
58638;DHT22;54976;51.510;7.522;2023-05-08T06:11:05;14.60;99.90
58638;DHT22;54976;51.510;7.522;2023-05-08T06:14:05;14.90;99.90
58638;DHT22;54976;51.510;7.522;2023-05-08T06:17:06;15.10;99.90
58638;DHT22;54976;51.510;7.522;2023-05-08T06:20:07;15.30;99.90
58638;DHT22;54976;51.510;7.522;2023-05-08T06:23:08;15.50;99.90
58638;DHT22;54976;51.510;7.522;2023-05-08T06:26:08;15.70;99.90
58638;DHT22;54976;51.510;7.522;2023-05-08T06:29:09;15.90;99.90
58638;DHT22;54976;51.510;7.522;2023-05-08T06:32:10;16.10;99.90
58638;DHT22;54976;51.510;7.522;2023-05-08T06:35:10;16.40;99.90
58638;DHT22;54976;51.510;7.522;2023-05-08T06:38:11;16.50;99.90
58638;DHT22;54976;51.510;7.522;2023-05-08T06:41:12;16.60;99.90
58638;DHT22;54976;51.510;7.522;2023-05-08T06:44:12;16.70;99.90
58638;DHT22;54976;51.510;7.522;2023-05-08T06:47:13;16.80;99.90
58638;DHT22;54976;51.510;7.522;2023-05-08T06:50:14;17.00;99.90
58638;DHT22;54976;51.510;7.522;2023-05-08T06:53:14;17.10;99.90
58638;DHT22;54976;51.510;7.522;2023-05-08T06:56:15;17.20;99.90
58638;DHT22;54976;51.510;7.522;2023-05-08T06:59:15;17.30;99.90
58638;DHT22;54976;51.510;7.522;2023-05-08T07:02:16;17.50;99.90
58638;DHT22;54976;51.510;7.522;2023-05-08T07:05:17;17.70;99.90
58638;DHT22;54976;51.510;7.522;2023-05-08T07:08:19;17.80;99.90
58638;DHT22;54976;51.510;7.522;2023-05-08T07:11:19;17.90;99.90
58638;DHT22;54976;51.510;7.522;2023-05-08T07:14:20;18.00;99.90
58638;DHT22;54976;51.510;7.522;2023-05-08T07:17:20;18.10;99.90
58638;DHT22;54976;51.510;7.522;2023-05-08T07:20:21;18.20;99.90
58638;DHT22;54976;51.510;7.522;2023-05-08T07:23:23;18.20;99.90
58638;DHT22;54976;51.510;7.522;2023-05-08T07:26:24;18.20;99.90
58638;DHT22;54976;51.510;7.522;2023-05-08T07:29:25;18.20;99.90
58638;DHT22;54976;51.510;7.522;2023-05-08T07:32:26;18.20;99.90
58638;DHT22;54976;51.510;7.522;2023-05-08T07:35:26;18.20;99.90
58638;DHT22;54976;51.510;7.522;2023-05-08T07:38:28;18.20;99.90
58638;DHT22;54976;51.510;7.522;2023-05-08T07:41:29;18.40;99.90
58638;DHT22;54976;51.510;7.522;2023-05-08T07:44:32;18.50;99.90
58638;DHT22;54976;51.510;7.522;2023-05-08T07:47:33;18.50;99.90
58638;DHT22;54976;51.510;7.522;2023-05-08T07:50:34;18.40;99.90
58638;DHT22;54976;51.510;7.522;2023-05-08T07:53:35;18.60;99.90
58638;DHT22;54976;51.510;7.522;2023-05-08T07:56:36;18.70;99.90
58638;DHT22;54976;51.510;7.522;2023-05-08T07:59:37;18.70;99.90
58638;DHT22;54976;51.510;7.522;2023-05-08T08:02:38;18.80;99.90
58638;DHT22;54976;51.510;7.522;2023-05-08T08:05:38;18.80;99.90
58638;DHT22;54976;51.510;7.522;2023-05-08T08:08:39;18.90;99.80
58638;DHT22;54976;51.510;7.522;2023-05-08T08:11:40;19.00;99.20
58638;DHT22;54976;51.510;7.522;2023-05-08T08:14:41;19.10;99.00
58638;DHT22;54976;51.510;7.522;2023-05-08T08:17:41;19.20;98.70
58638;DHT22;54976;51.510;7.522;2023-05-08T08:20:42;19.30;97.70
58638;DHT22;54976;51.510;7.522;2023-05-08T08:23:43;19.40;98.00
58638;DHT22;54976;51.510;7.522;2023-05-08T08:26:44;19.40;98.40
58638;DHT22;54976;51.510;7.522;2023-05-08T08:29:44;19.40;97.90
58638;DHT22;54976;51.510;7.522;2023-05-08T08:32:45;19.40;97.60
58638;DHT22;54976;51.510;7.522;2023-05-08T08:35:46;19.40;97.40
58638;DHT22;54976;51.510;7.522;2023-05-08T08:38:46;19.40;97.10
58638;DHT22;54976;51.510;7.522;2023-05-08T08:41:47;19.50;97.60
58638;DHT22;54976;51.510;7.522;2023-05-08T08:44:48;19.60;97.00
58638;DHT22;54976;51.510;7.522;2023-05-08T08:47:51;19.60;96.40
58638;DHT22;54976;51.510;7.522;2023-05-08T08:50:57;19.60;96.80
58638;DHT22;54976;51.510;7.522;2023-05-08T08:57:08;19.80;97.60
58638;DHT22;54976;51.510;7.522;2023-05-08T09:00:10;19.80;95.60
58638;DHT22;54976;51.510;7.522;2023-05-08T09:03:11;19.80;96.20
58638;DHT22;54976;51.510;7.522;2023-05-08T09:06:13;20.00;94.80
58638;DHT22;54976;51.510;7.522;2023-05-08T09:09:13;20.20;95.60
58638;DHT22;54976;51.510;7.522;2023-05-08T09:12:14;20.30;95.10
58638;DHT22;54976;51.510;7.522;2023-05-08T09:15:15;20.40;94.60
58638;DHT22;54976;51.510;7.522;2023-05-08T09:18:15;20.50;94.40
58638;DHT22;54976;51.510;7.522;2023-05-08T09:21:16;20.60;94.40
58638;DHT22;54976;51.510;7.522;2023-05-08T09:24:17;20.70;94.10
58638;DHT22;54976;51.510;7.522;2023-05-08T09:27:22;20.70;94.60
58638;DHT22;54976;51.510;7.522;2023-05-08T09:30:23;20.60;93.00
58638;DHT22;54976;51.510;7.522;2023-05-08T09:33:27;20.70;93.30
58638;DHT22;54976;51.510;7.522;2023-05-08T09:36:28;20.80;94.20
58638;DHT22;54976;51.510;7.522;2023-05-08T09:39:31;21.00;93.40
58638;DHT22;54976;51.510;7.522;2023-05-08T09:42:37;21.10;92.30
58638;DHT22;54976;51.510;7.522;2023-05-08T09:45:38;21.00;93.00
58638;DHT22;54976;51.510;7.522;2023-05-08T09:48:40;21.10;93.40
58638;DHT22;54976;51.510;7.522;2023-05-08T09:51:53;21.10;91.80
58638;DHT22;54976;51.510;7.522;2023-05-08T09:54:59;21.00;93.20
58638;DHT22;54976;51.510;7.522;2023-05-08T09:57:59;21.00;93.60
58638;DHT22;54976;51.510;7.522;2023-05-08T10:01:00;21.00;93.60
58638;DHT22;54976;51.510;7.522;2023-05-08T10:04:01;21.00;92.20
58638;DHT22;54976;51.510;7.522;2023-05-08T10:07:03;20.90;93.40
58638;DHT22;54976;51.510;7.522;2023-05-08T10:10:04;20.90;93.10
58638;DHT22;54976;51.510;7.522;2023-05-08T10:13:05;20.80;92.80
58638;DHT22;54976;51.510;7.522;2023-05-08T10:16:08;20.80;94.00
58638;DHT22;54976;51.510;7.522;2023-05-08T10:19:14;20.90;93.70
58638;DHT22;54976;51.510;7.522;2023-05-08T10:22:17;20.90;92.80
58638;DHT22;54976;51.510;7.522;2023-05-08T10:25:21;20.90;92.50
58638;DHT22;54976;51.510;7.522;2023-05-08T10:28:31;20.70;91.80
58638;DHT22;54976;51.510;7.522;2023-05-08T10:31:35;20.50;91.00
58638;DHT22;54976;51.510;7.522;2023-05-08T10:34:40;20.30;92.10
58638;DHT22;54976;51.510;7.522;2023-05-08T10:37:43;20.10;93.00
58638;DHT22;54976;51.510;7.522;2023-05-08T10:40:45;20.10;93.40
58638;DHT22;54976;51.510;7.522;2023-05-08T10:43:47;20.10;93.00
58638;DHT22;54976;51.510;7.522;2023-05-08T10:46:56;20.10;93.50
58638;DHT22;54976;51.510;7.522;2023-05-08T10:53:43;20.40;94.30
58638;DHT22;54976;51.510;7.522;2023-05-08T10:56:47;20.60;93.60
58638;DHT22;54976;51.510;7.522;2023-05-08T10:59:48;20.70;93.50
58638;DHT22;54976;51.510;7.522;2023-05-08T11:02:48;20.70;93.80
58638;DHT22;54976;51.510;7.522;2023-05-08T11:05:51;20.70;93.50
58638;DHT22;54976;51.510;7.522;2023-05-08T11:08:52;20.60;94.50
58638;DHT22;54976;51.510;7.522;2023-05-08T11:12:06;20.60;94.50
58638;DHT22;54976;51.510;7.522;2023-05-08T11:15:08;20.50;95.00
58638;DHT22;54976;51.510;7.522;2023-05-08T11:18:09;20.50;95.50
58638;DHT22;54976;51.510;7.522;2023-05-08T11:21:19;20.50;96.00
58638;DHT22;54976;51.510;7.522;2023-05-08T11:24:34;20.60;96.10
58638;DHT22;54976;51.510;7.522;2023-05-08T11:28:08;20.80;95.90
58638;DHT22;54976;51.510;7.522;2023-05-08T11:31:07;21.00;95.70
58638;DHT22;54976;51.510;7.522;2023-05-08T11:37:51;21.20;94.50
58638;DHT22;54976;51.510;7.522;2023-05-08T11:41:23;21.30;94.80
58638;DHT22;54976;51.510;7.522;2023-05-08T11:44:24;21.50;95.00
58638;DHT22;54976;51.510;7.522;2023-05-08T11:47:34;21.50;94.10
58638;DHT22;54976;51.510;7.522;2023-05-08T11:50:36;21.50;94.10
58638;DHT22;54976;51.510;7.522;2023-05-08T11:53:37;21.40;94.00
58638;DHT22;54976;51.510;7.522;2023-05-08T11:56:37;21.20;94.40
58638;DHT22;54976;51.510;7.522;2023-05-08T11:59:40;21.10;94.50
58638;DHT22;54976;51.510;7.522;2023-05-08T12:02:42;20.90;94.90
58638;DHT22;54976;51.510;7.522;2023-05-08T12:05:43;20.80;94.10
58638;DHT22;54976;51.510;7.522;2023-05-08T12:08:44;20.70;95.40
58638;DHT22;54976;51.510;7.522;2023-05-08T12:11:44;20.60;96.70
58638;DHT22;54976;51.510;7.522;2023-05-08T12:14:49;20.60;96.50
58638;DHT22;54976;51.510;7.522;2023-05-08T12:18:00;20.70;96.40
58638;DHT22;54976;51.510;7.522;2023-05-08T12:21:02;20.70;96.80
58638;DHT22;54976;51.510;7.522;2023-05-08T12:24:06;20.70;95.30
58638;DHT22;54976;51.510;7.522;2023-05-08T12:27:08;20.90;95.10
58638;DHT22;54976;51.510;7.522;2023-05-08T12:30:13;21.10;96.60
58638;DHT22;54976;51.510;7.522;2023-05-08T12:33:14;21.00;94.40
58638;DHT22;54976;51.510;7.522;2023-05-08T12:36:15;21.10;95.10
58638;DHT22;54976;51.510;7.522;2023-05-08T12:39:17;21.40;93.80
58638;DHT22;54976;51.510;7.522;2023-05-08T12:42:18;21.90;93.20
58638;DHT22;54976;51.510;7.522;2023-05-08T12:45:24;22.20;93.90
58638;DHT22;54976;51.510;7.522;2023-05-08T12:48:26;22.70;90.50
58638;DHT22;54976;51.510;7.522;2023-05-08T12:51:29;22.80;86.70
58638;DHT22;54976;51.510;7.522;2023-05-08T12:54:35;22.70;85.20
58638;DHT22;54976;51.510;7.522;2023-05-08T12:57:36;22.40;90.00
58638;DHT22;54976;51.510;7.522;2023-05-08T13:00:43;22.50;91.20
58638;DHT22;54976;51.510;7.522;2023-05-08T13:03:44;22.80;90.50
58638;DHT22;54976;51.510;7.522;2023-05-08T13:06:55;22.90;88.00
58638;DHT22;54976;51.510;7.522;2023-05-08T13:10:00;22.90;90.00
58638;DHT22;54976;51.510;7.522;2023-05-08T13:13:03;22.90;89.40
58638;DHT22;54976;51.510;7.522;2023-05-08T13:16:05;22.70;88.00
58638;DHT22;54976;51.510;7.522;2023-05-08T13:19:06;22.70;87.70
58638;DHT22;54976;51.510;7.522;2023-05-08T13:22:07;22.50;88.10
58638;DHT22;54976;51.510;7.522;2023-05-08T13:25:08;22.10;89.90
58638;DHT22;54976;51.510;7.522;2023-05-08T13:28:09;21.80;89.70
58638;DHT22;54976;51.510;7.522;2023-05-08T13:31:10;21.70;88.60
58638;DHT22;54976;51.510;7.522;2023-05-08T13:34:10;21.70;91.00
58638;DHT22;54976;51.510;7.522;2023-05-08T13:37:11;21.80;90.60
58638;DHT22;54976;51.510;7.522;2023-05-08T13:40:12;21.80;88.60
58638;DHT22;54976;51.510;7.522;2023-05-08T13:43:13;21.90;90.10
58638;DHT22;54976;51.510;7.522;2023-05-08T13:46:13;22.00;90.50
58638;DHT22;54976;51.510;7.522;2023-05-08T13:49:14;22.10;89.20
58638;DHT22;54976;51.510;7.522;2023-05-08T13:52:15;22.00;88.10
58638;DHT22;54976;51.510;7.522;2023-05-08T13:55:16;22.00;87.40
58638;DHT22;54976;51.510;7.522;2023-05-08T13:58:18;22.00;86.40
58638;DHT22;54976;51.510;7.522;2023-05-08T14:01:19;21.90;89.70
58638;DHT22;54976;51.510;7.522;2023-05-08T14:04:20;21.80;88.20
58638;DHT22;54976;51.510;7.522;2023-05-08T14:07:20;21.50;88.50
58638;DHT22;54976;51.510;7.522;2023-05-08T14:10:21;21.40;89.90
58638;DHT22;54976;51.510;7.522;2023-05-08T14:13:22;21.30;90.10
58638;DHT22;54976;51.510;7.522;2023-05-08T14:16:22;21.20;90.10
58638;DHT22;54976;51.510;7.522;2023-05-08T14:19:23;21.10;90.10
58638;DHT22;54976;51.510;7.522;2023-05-08T14:22:24;20.90;91.60
58638;DHT22;54976;51.510;7.522;2023-05-08T14:25:24;20.80;92.30
58638;DHT22;54976;51.510;7.522;2023-05-08T14:28:25;20.70;91.50
58638;DHT22;54976;51.510;7.522;2023-05-08T14:31:25;20.60;92.30
58638;DHT22;54976;51.510;7.522;2023-05-08T14:34:26;20.70;92.00
58638;DHT22;54976;51.510;7.522;2023-05-08T14:37:27;20.60;92.40
58638;DHT22;54976;51.510;7.522;2023-05-08T14:40:27;20.60;92.90
58638;DHT22;54976;51.510;7.522;2023-05-08T14:43:28;20.50;93.80
58638;DHT22;54976;51.510;7.522;2023-05-08T14:46:28;20.50;94.20
58638;DHT22;54976;51.510;7.522;2023-05-08T14:49:29;20.50;93.50
58638;DHT22;54976;51.510;7.522;2023-05-08T14:52:30;20.60;93.80
58638;DHT22;54976;51.510;7.522;2023-05-08T14:55:31;20.70;93.40
58638;DHT22;54976;51.510;7.522;2023-05-08T14:58:32;20.80;94.40
58638;DHT22;54976;51.510;7.522;2023-05-08T15:01:32;20.90;94.40
58638;DHT22;54976;51.510;7.522;2023-05-08T15:04:33;21.10;94.10
58638;DHT22;54976;51.510;7.522;2023-05-08T15:07:35;21.00;93.00
58638;DHT22;54976;51.510;7.522;2023-05-08T15:10:36;21.10;94.40
58638;DHT22;54976;51.510;7.522;2023-05-08T15:13:36;21.30;93.30
58638;DHT22;54976;51.510;7.522;2023-05-08T15:16:37;21.40;93.60
58638;DHT22;54976;51.510;7.522;2023-05-08T15:19:37;21.50;93.50
58638;DHT22;54976;51.510;7.522;2023-05-08T15:22:38;21.50;92.50
58638;DHT22;54976;51.510;7.522;2023-05-08T15:25:39;21.60;93.70
58638;DHT22;54976;51.510;7.522;2023-05-08T15:28:40;21.80;92.20
58638;DHT22;54976;51.510;7.522;2023-05-08T15:31:41;21.70;92.70
58638;DHT22;54976;51.510;7.522;2023-05-08T15:34:42;21.70;93.00
58638;DHT22;54976;51.510;7.522;2023-05-08T15:37:42;21.60;92.20
58638;DHT22;54976;51.510;7.522;2023-05-08T15:40:43;21.70;92.00
58638;DHT22;54976;51.510;7.522;2023-05-08T15:43:43;21.60;91.50
58638;DHT22;54976;51.510;7.522;2023-05-08T15:46:44;21.70;92.60
58638;DHT22;54976;51.510;7.522;2023-05-08T15:49:45;21.80;90.30
58638;DHT22;54976;51.510;7.522;2023-05-08T15:52:46;21.70;89.90
58638;DHT22;54976;51.510;7.522;2023-05-08T15:55:46;21.70;90.80
58638;DHT22;54976;51.510;7.522;2023-05-08T15:58:47;21.60;90.20
58638;DHT22;54976;51.510;7.522;2023-05-08T16:01:47;21.60;91.90
58638;DHT22;54976;51.510;7.522;2023-05-08T16:04:48;21.40;90.50
58638;DHT22;54976;51.510;7.522;2023-05-08T16:07:48;21.30;89.90
58638;DHT22;54976;51.510;7.522;2023-05-08T16:10:53;21.10;90.00
58638;DHT22;54976;51.510;7.522;2023-05-08T16:13:53;21.00;89.70
58638;DHT22;54976;51.510;7.522;2023-05-08T16:16:54;20.90;90.70
58638;DHT22;54976;51.510;7.522;2023-05-08T16:19:55;20.90;90.10
58638;DHT22;54976;51.510;7.522;2023-05-08T16:22:56;20.90;91.70
58638;DHT22;54976;51.510;7.522;2023-05-08T16:25:56;20.90;90.90
58638;DHT22;54976;51.510;7.522;2023-05-08T16:28:57;20.80;90.10
58638;DHT22;54976;51.510;7.522;2023-05-08T16:31:58;20.70;90.50
58638;DHT22;54976;51.510;7.522;2023-05-08T16:34:58;20.80;92.10
58638;DHT22;54976;51.510;7.522;2023-05-08T16:37:59;20.90;91.90
58638;DHT22;54976;51.510;7.522;2023-05-08T16:41:04;20.90;91.00
58638;DHT22;54976;51.510;7.522;2023-05-08T16:44:05;20.90;91.20
58638;DHT22;54976;51.510;7.522;2023-05-08T16:47:05;20.90;89.90
58638;DHT22;54976;51.510;7.522;2023-05-08T16:50:06;20.90;90.00
58638;DHT22;54976;51.510;7.522;2023-05-08T16:53:07;20.90;90.90
58638;DHT22;54976;51.510;7.522;2023-05-08T16:56:08;21.00;90.80
58638;DHT22;54976;51.510;7.522;2023-05-08T16:59:08;21.20;91.10
58638;DHT22;54976;51.510;7.522;2023-05-08T17:02:09;21.10;90.90
58638;DHT22;54976;51.510;7.522;2023-05-08T17:05:11;20.90;91.50
58638;DHT22;54976;51.510;7.522;2023-05-08T17:08:11;20.90;91.50
58638;DHT22;54976;51.510;7.522;2023-05-08T17:11:12;20.90;91.20
58638;DHT22;54976;51.510;7.522;2023-05-08T17:14:13;20.80;91.80
58638;DHT22;54976;51.510;7.522;2023-05-08T17:17:13;20.70;92.30
58638;DHT22;54976;51.510;7.522;2023-05-08T17:20:14;20.50;91.90
58638;DHT22;54976;51.510;7.522;2023-05-08T17:23:14;20.40;93.10
58638;DHT22;54976;51.510;7.522;2023-05-08T17:26:15;20.20;92.90
58638;DHT22;54976;51.510;7.522;2023-05-08T17:29:16;20.10;93.10
58638;DHT22;54976;51.510;7.522;2023-05-08T17:32:16;19.90;93.50
58638;DHT22;54976;51.510;7.522;2023-05-08T17:35:17;19.80;94.10
58638;DHT22;54976;51.510;7.522;2023-05-08T17:38:18;19.70;94.50
58638;DHT22;54976;51.510;7.522;2023-05-08T17:41:18;19.70;94.70
58638;DHT22;54976;51.510;7.522;2023-05-08T17:44:19;19.50;95.20
58638;DHT22;54976;51.510;7.522;2023-05-08T17:47:20;19.40;95.50
58638;DHT22;54976;51.510;7.522;2023-05-08T17:50:20;19.30;95.80
58638;DHT22;54976;51.510;7.522;2023-05-08T17:53:21;19.20;95.80
58638;DHT22;54976;51.510;7.522;2023-05-08T17:56:22;19.20;96.20
58638;DHT22;54976;51.510;7.522;2023-05-08T17:59:22;19.10;96.60
58638;DHT22;54976;51.510;7.522;2023-05-08T18:02:23;19.00;97.00
58638;DHT22;54976;51.510;7.522;2023-05-08T18:05:24;18.90;97.20
58638;DHT22;54976;51.510;7.522;2023-05-08T18:08:24;18.90;97.40
58638;DHT22;54976;51.510;7.522;2023-05-08T18:11:25;18.80;97.40
58638;DHT22;54976;51.510;7.522;2023-05-08T18:14:29;18.80;97.60
58638;DHT22;54976;51.510;7.522;2023-05-08T18:17:30;18.70;98.00
58638;DHT22;54976;51.510;7.522;2023-05-08T18:20:30;18.70;98.40
58638;DHT22;54976;51.510;7.522;2023-05-08T18:23:31;18.60;99.10
58638;DHT22;54976;51.510;7.522;2023-05-08T18:26:31;18.60;99.40
58638;DHT22;54976;51.510;7.522;2023-05-08T18:29:32;18.50;99.40
58638;DHT22;54976;51.510;7.522;2023-05-08T18:32:33;18.40;99.90
58638;DHT22;54976;51.510;7.522;2023-05-08T18:35:34;18.40;99.90
58638;DHT22;54976;51.510;7.522;2023-05-08T18:38:35;18.30;99.90
58638;DHT22;54976;51.510;7.522;2023-05-08T18:41:35;18.30;99.90
58638;DHT22;54976;51.510;7.522;2023-05-08T18:44:36;18.20;99.90
58638;DHT22;54976;51.510;7.522;2023-05-08T18:47:36;18.30;99.90
58638;DHT22;54976;51.510;7.522;2023-05-08T18:50:37;18.20;99.90
58638;DHT22;54976;51.510;7.522;2023-05-08T18:53:38;18.20;99.90
58638;DHT22;54976;51.510;7.522;2023-05-08T18:56:38;18.20;99.90
58638;DHT22;54976;51.510;7.522;2023-05-08T18:59:39;18.20;99.90
58638;DHT22;54976;51.510;7.522;2023-05-08T19:02:39;18.10;99.90
58638;DHT22;54976;51.510;7.522;2023-05-08T19:05:40;18.20;99.90
58638;DHT22;54976;51.510;7.522;2023-05-08T19:08:41;18.00;99.90
58638;DHT22;54976;51.510;7.522;2023-05-08T19:11:42;18.00;99.90
58638;DHT22;54976;51.510;7.522;2023-05-08T19:14:42;18.00;99.90
58638;DHT22;54976;51.510;7.522;2023-05-08T19:17:43;18.00;99.90
58638;DHT22;54976;51.510;7.522;2023-05-08T19:20:43;18.00;99.90
58638;DHT22;54976;51.510;7.522;2023-05-08T19:23:44;17.90;99.90
58638;DHT22;54976;51.510;7.522;2023-05-08T19:26:46;17.90;99.90
58638;DHT22;54976;51.510;7.522;2023-05-08T19:29:46;17.90;99.90
58638;DHT22;54976;51.510;7.522;2023-05-08T19:32:48;17.80;99.90
58638;DHT22;54976;51.510;7.522;2023-05-08T19:35:49;17.80;99.90
58638;DHT22;54976;51.510;7.522;2023-05-08T19:38:49;17.70;99.90
58638;DHT22;54976;51.510;7.522;2023-05-08T19:41:50;17.70;99.90
58638;DHT22;54976;51.510;7.522;2023-05-08T19:44:51;17.70;99.90
58638;DHT22;54976;51.510;7.522;2023-05-08T19:47:51;17.50;99.90